Impacts METAR Board
IDs:

KATL - Atlanta/Hartsfield-J, GA, US

Updated at: 1300 UTC 23 Jun 2018
Potential Impact None Slight Moderate High
Time 23/01Z 23/02Z 23/03Z 23/04Z 23/05Z 23/06Z 23/07Z 23/08Z 23/09Z 23/10Z 23/11Z 23/12Z 23/13Z
Temp72 72 72 72 73 72 72 73 73 74 74 75 76
Dewpt69 69 69 69 69 69 69 69 70 71 71 71 71
Altim29.87 29.87 29.88 29.87 29.88 29.87 29.88 29.88 29.89 29.89 29.91 29.94 29.96
VIS10 10 10 10 10 10 10 10 10 8 6 7 8
CIG200 150 250 250 40 -- -- 55 16 6 8 9 10
CoverBKNBKNBKNBKNOVCSCTSCTBKNBKNOVCOVCBKNBKN
FltCatVFRVFRVFRVFRVFRVFRVFRVFRMVFRIFRIFRIFRMVFR
WX--------------------BR----
WDir1902002202302300200220230230260260240
WSpd6 6 7 7 3 0 4 7 5 4 6 9 8
WGst-- -- -- -- -- -- -- -- -- -- -- -- --
Raw hourly METARs
KATL 230052Z 19006KT 10SM FEW080 SCT140 BKN200 22/21 A2987 RMK AO2 RAE03 SLP105 P0000 T02220206
KATL 230152Z 20006KT 10SM FEW090 BKN150 BKN200 22/21 A2987 RMK AO2 SLP105 T02220206
KATL 230252Z 22007KT 10SM FEW090 SCT200 BKN250 22/21 A2988 RMK AO2 SLP108 60000 T02220206 55002
KATL 230352Z 23007KT 10SM FEW030 SCT150 BKN250 22/21 A2987 RMK AO2 SLP105 CB DSNT NW T02220206
KATL 230452Z 23003KT 10SM FEW007 SCT020CB BKN040 OVC200 23/21 A2988 RMK AO2 RAB12E21B39E45 SLP105 CB VC NE & DSNT NW MOV E P0000 T02280206 403280222
KATL 230552Z 00000KT 10SM FEW009 FEW040 SCT095 SCT200 22/21 A2987 RMK AO2 LTG DSNT SW SLP105 ACC DSNT SE 60000 T02220206 10228 20222 56002
KATL 230652Z COR 20004KT 10SM FEW007 FEW047 FEW095 SCT200 BKN250 22/21 A2988 RMK AO2 SLP106 OCNL LTG DSNT SE-SW CB DSNT SE-SW T02220206
KATL 230752Z 22007KT 10SM FEW007 FEW025 BKN055 BKN200 BKN250 23/21 A2988 RMK AO2 SLP107 OCNL LTG DSNT SE-SW CB DSNT SE-SW T02280206
KATL 230858Z 23005KT 10SM BKN016 BKN029 BKN060 BKN150 23/21 A2989 RMK AO2 LTG DSNT SE CB DSNT SE T02280211
KATL 230952Z 23004KT 8SM BKN006 BKN015 OVC027 23/22 A2989 RMK AO2 SLP109 CIG 005V009 T02330217
KATL 231052Z 26006KT 6SM BR OVC008 23/22 A2991 RMK AO2 SLP118 CIG 007V010 BINOVC T02330217
KATL 231152Z 26009KT 7SM BKN009 BKN060 24/22 A2994 RMK AO2 SLP128 BKN009 V SCT 70047 T02390217 10239 20222 53017
KATL 231252Z 24008KT 8SM BKN010 BKN065 24/22 A2996 RMK AO2 SLP135 CIG 008V014 BKN010 V SCT T02440217



Page loaded:  13:54 UTC  |   06:54 AM Pacific  |   07:54 AM Mountain  |   08:54 AM Central  |   09:54 AM Eastern

 

ADVISORIES

FORECASTS

FORECASTS

OBSERVATIONS

USER TOOLS

ABOUT US